METAR EPSY 231730Z VRB02KT 9999 FEW013 M06/M07 Q1032=